Time;durP1;ratioP1;P1;durP2;ratioP2;P2;SDS_P1;SDS_P2;PMS_P1;PMS_P2;Temp;Humidity;BMP_temperature;BMP_pressure;BME280_temperature;BME280_humidity;BME280_pressure;Samples;Min_cycle;Max_cycle;Signal;HPM_P1;HPM_P2
2022/08/20 00:04:17;;;;;;;17.25;12.45;;;;;;;20.56;66.67;97210.94;10254601;28;20125;-56
2022/08/20 00:09:16;;;;;;;14.95;11.00;;;;;;;20.43;67.60;97206.28;10283429;28;20033;-56
2022/08/20 00:14:15;;;;;;;16.10;11.60;;;;;;;20.33;67.90;97212.03;10293980;28;20030;-56
2022/08/20 00:19:14;;;;;;;15.02;11.18;;;;;;;20.27;68.09;97215.81;10293905;28;20030;-56
2022/08/20 00:24:13;;;;;;;14.95;12.15;;;;;;;20.24;68.19;97205.44;10294015;28;20550;-56
2022/08/20 00:29:12;;;;;;;16.40;11.45;;;;;;;20.15;69.17;97196.19;10293215;28;20042;-56
2022/08/20 00:34:11;;;;;;;16.10;11.15;;;;;;;20.06;69.82;97194.00;10293095;28;20053;-56
2022/08/20 00:39:10;;;;;;;16.10;11.13;;;;;;;19.98;70.54;97183.84;10293736;28;20030;-56
2022/08/20 00:44:16;;;;;;;12.82;10.75;;;;;;;19.85;71.03;97180.94;10293001;28;20416;-56
2022/08/20 00:49:32;;;;;;;13.45;10.73;;;;;;;19.81;71.05;97195.19;10272166;28;20066;-56
2022/08/20 00:54:40;;;;;;;13.45;11.57;;;;;;;19.79;71.05;97183.88;10253055;28;20057;-56
2022/08/20 00:59:41;;;;;;;14.63;11.05;;;;;;;19.75;71.98;97182.31;10252585;28;20066;-56
2022/08/20 01:04:44;;;;;;;14.43;12.32;;;;;;;19.70;71.89;97184.31;10251966;28;20081;-56
2022/08/20 01:09:43;;;;;;;14.93;11.85;;;;;;;19.68;72.05;97186.16;10285496;28;20065;-56
2022/08/20 01:14:44;;;;;;;14.27;11.35;;;;;;;19.70;71.85;97189.56;10291236;28;20065;-56
2022/08/20 01:20:01;;;;;;;15.27;11.93;;;;;;;19.68;71.85;97175.63;10292434;28;20057;-56
2022/08/20 01:25:08;;;;;;;15.90;11.93;;;;;;;19.64;72.22;97169.63;10291563;28;20057;-56
2022/08/20 01:30:08;;;;;;;16.48;11.50;;;;;;;19.60;72.46;97169.84;10290870;28;20064;-56
2022/08/20 01:35:08;;;;;;;17.08;11.10;;;;;;;19.57;72.56;97162.94;10290761;28;20136;-56
2022/08/20 01:40:15;;;;;;;17.75;10.77;;;;;;;19.48;72.54;97157.22;10291236;28;20530;-56
2022/08/20 01:45:14;;;;;;;14.48;11.13;;;;;;;19.43;73.30;97166.19;10290585;28;20076;-56
2022/08/20 01:50:21;;;;;;;19.02;12.40;;;;;;;19.42;74.20;97161.88;10263412;28;20058;-56
2022/08/20 01:55:21;;;;;;;15.65;11.65;;;;;;;19.39;74.34;97159.38;10250926;28;20066;-56
2022/08/20 02:00:21;;;;;;;16.10;11.82;;;;;;;19.31;74.38;97135.19;10249659;28;20065;-56
2022/08/20 02:05:20;;;;;;;17.35;12.00;;;;;;;19.35;74.02;97146.44;10250106;28;20507;-56
2022/08/20 02:10:19;;;;;;;17.75;12.70;;;;;;;19.28;74.17;97139.75;10287716;28;20069;-55
2022/08/20 02:15:18;;;;;;;15.02;11.73;;;;;;;19.28;73.97;97131.84;10290914;28;20058;-55
2022/08/20 02:20:22;;;;;;;17.73;12.45;;;;;;;19.18;74.43;97139.28;10288922;28;20488;-57
2022/08/20 02:25:24;;;;;;;13.18;10.77;;;;;;;19.06;74.91;97134.59;10289251;28;20557;-57
2022/08/20 02:30:37;;;;;;;15.40;11.65;;;;;;;18.88;75.57;97138.88;10289202;28;20070;-57
2022/08/20 02:35:38;;;;;;;15.55;12.07;;;;;;;18.64;76.00;97132.91;10288632;28;20073;-57
2022/08/20 02:40:37;;;;;;;18.15;13.15;;;;;;;18.49;76.56;97135.28;10288341;28;20495;-57
2022/08/20 02:45:42;;;;;;;16.58;11.68;;;;;;;18.38;77.44;97133.09;10288359;28;20514;-57
2022/08/20 02:50:42;;;;;;;16.17;11.85;;;;;;;18.34;78.12;97149.06;10256776;28;20448;-57
2022/08/20 02:55:42;;;;;;;17.02;13.32;;;;;;;18.20;78.49;97136.50;10248922;28;20061;-57
2022/08/20 03:00:41;;;;;;;19.05;13.32;;;;;;;18.16;78.44;97143.66;10249057;28;20066;-57
2022/08/20 03:05:43;;;;;;;15.30;12.90;;;;;;;18.16;78.53;97148.91;10247369;28;20516;-56
2022/08/20 03:10:45;;;;;;;21.50;14.05;;;;;;;18.13;78.82;97149.03;10286847;28;20062;-56
2022/08/20 03:15:53;;;;;;;18.85;12.90;;;;;;;18.14;78.90;97145.47;10288076;28;20053;-57
2022/08/20 03:20:52;;;;;;;20.05;16.13;;;;;;;18.16;78.90;97146.28;10287640;28;20053;-57
2022/08/20 03:25:51;;;;;;;27.17;21.35;;;;;;;18.17;79.00;97140.13;10287584;28;20069;-56
2022/08/20 03:30:51;;;;;;;44.40;35.03;;;;;;;18.18;79.23;97152.31;10288771;28;20030;-56
2022/08/20 03:35:51;;;;;;;29.30;22.35;;;;;;;18.16;79.71;97153.31;10287433;28;20100;-55
2022/08/20 03:40:50;;;;;;;25.88;18.13;;;;;;;18.12;79.85;97149.94;10287559;28;20070;-55
2022/08/20 03:45:49;;;;;;;24.85;18.48;;;;;;;18.08;80.11;97156.25;10287840;28;20062;-55
2022/08/20 03:50:49;;;;;;;22.00;18.15;;;;;;;18.10;80.50;97162.28;10279296;28;20527;-55
2022/08/20 03:55:52;;;;;;;20.02;14.88;;;;;;;18.11;80.39;97160.53;10287188;28;20068;-55
2022/08/20 04:00:51;;;;;;;21.25;14.80;;;;;;;18.13;80.37;97161.31;10287219;28;20069;-55
2022/08/20 04:05:51;;;;;;;21.75;13.85;;;;;;;18.08;80.69;97158.88;10285598;28;20030;-55
2022/08/20 04:10:50;;;;;;;24.52;15.25;;;;;;;18.04;81.06;97161.69;10286395;28;20132;-55
2022/08/20 04:15:52;;;;;;;20.45;14.70;;;;;;;18.12;80.68;97152.56;10286930;28;20088;-55
2022/08/20 04:20:52;;;;;;;21.25;14.70;;;;;;;18.28;80.55;97157.19;10285586;28;20069;-55
2022/08/20 04:25:51;;;;;;;23.48;13.38;;;;;;;18.42;80.18;97159.25;10292774;28;20069;-55
2022/08/20 04:30:51;;;;;;;16.17;13.32;;;;;;;18.49;80.14;97160.69;10291875;28;20053;-55
2022/08/20 04:35:50;;;;;;;18.58;12.40;;;;;;;18.63;79.83;97157.50;10293428;28;20069;-55
2022/08/20 04:40:56;;;;;;;17.02;13.55;;;;;;;18.79;79.62;97154.16;10286757;28;20037;-55
2022/08/20 04:45:58;;;;;;;20.20;13.18;;;;;;;18.97;78.81;97142.00;10290449;28;20130;-55
2022/08/20 04:50:58;;;;;;;18.15;13.45;;;;;;;19.17;77.99;97142.84;10283651;28;20132;-55
2022/08/20 04:55:59;;;;;;;18.80;13.70;;;;;;;19.33;77.32;97138.59;10290857;28;20121;-55
2022/08/20 05:01:04;;;;;;;21.20;14.10;;;;;;;19.36;77.48;97141.09;10286194;28;20563;-55
2022/08/20 05:06:05;;;;;;;22.63;15.77;;;;;;;19.49;77.40;97143.16;10285989;28;20120;-56
2022/08/20 05:11:06;;;;;;;22.63;15.13;;;;;;;19.51;78.08;97146.56;10288355;28;20519;-55
2022/08/20 05:16:05;;;;;;;21.98;15.13;;;;;;;19.54;77.89;97146.44;10288874;28;20108;-55
2022/08/20 05:21:04;;;;;;;20.27;14.75;;;;;;;19.63;77.29;97151.31;10289647;28;20069;-55
2022/08/20 05:26:06;;;;;;;17.83;15.38;;;;;;;19.75;76.84;97155.13;10291991;28;20076;-55
2022/08/20 05:31:08;;;;;;;23.20;14.75;;;;;;;19.82;76.71;97151.28;10291046;28;20487;-55
2022/08/20 05:36:07;;;;;;;19.60;14.20;;;;;;;20.01;76.28;97138.06;10290163;28;20069;-56
2022/08/20 05:41:06;;;;;;;21.60;16.27;;;;;;;20.19;75.70;97129.28;10292424;28;20060;-56
2022/08/20 05:46:05;;;;;;;18.95;14.80;;;;;;;20.43;74.90;97131.63;10289774;28;20029;-56
2022/08/20 05:51:04;;;;;;;19.90;16.00;;;;;;;20.63;73.97;97127.97;10288695;28;20038;-56
2022/08/20 05:56:03;;;;;;;22.65;16.13;;;;;;;20.90;73.09;97125.69;10289934;28;20069;-55
2022/08/20 06:01:03;;;;;;;19.98;14.00;;;;;;;21.18;72.33;97111.03;10289790;28;20068;-56
2022/08/20 06:06:03;;;;;;;20.80;14.40;;;;;;;21.47;71.30;97109.47;10289639;28;20491;-56
2022/08/20 06:11:02;;;;;;;21.25;14.85;;;;;;;21.72;69.87;97115.06;10290115;28;20070;-56
2022/08/20 06:16:01;;;;;;;18.45;13.63;;;;;;;21.95;68.18;97112.94;10289840;28;20468;-56
2022/08/20 06:21:00;;;;;;;18.30;14.02;;;;;;;22.04;67.37;97108.91;10288047;28;20073;-56
2022/08/20 06:25:59;;;;;;;20.20;12.45;;;;;;;22.31;66.23;97112.63;10287481;28;20105;-56
2022/08/20 06:30:59;;;;;;;16.77;11.70;;;;;;;22.59;65.04;97100.41;10288150;28;20042;-55
2022/08/20 06:35:58;;;;;;;14.05;12.05;;;;;;;22.90;63.68;97103.88;10287991;28;20534;-55
2022/08/20 06:40:57;;;;;;;16.85;12.30;;;;;;;23.16;61.70;97100.47;10288057;28;20499;-56
2022/08/20 06:45:56;;;;;;;16.23;10.90;;;;;;;23.44;59.25;97096.06;10286728;28;20075;-56
2022/08/20 06:50:55;;;;;;;17.48;10.68;;;;;;;23.73;59.28;97104.84;10288025;28;20443;-56
2022/08/20 06:55:59;;;;;;;11.82;9.60;;;;;;;23.99;57.90;97100.50;10288020;28;20057;-56
2022/08/20 07:00:59;;;;;;;16.00;10.60;;;;;;;24.29;56.63;97102.09;10287952;28;20487;-56
2022/08/20 07:05:58;;;;;;;27.27;11.90;;;;;;;24.62;55.85;97100.78;10287229;28;20070;-56
2022/08/20 07:10:58;;;;;;;16.15;9.10;;;;;;;24.89;52.90;97095.38;10288312;28;20098;-56
2022/08/20 07:15:57;;;;;;;14.52;9.88;;;;;;;25.08;52.76;97090.50;10288485;28;20069;-56
2022/08/20 07:20:56;;;;;;;11.13;8.75;;;;;;;25.31;52.56;97075.56;10286882;28;20105;-56
2022/08/20 07:25:56;;;;;;;11.45;8.85;;;;;;;25.65;50.59;97073.19;10288145;28;20499;-56
2022/08/20 07:36:13;;;;;;;13.90;11.05;;;;;;;26.20;49.00;97062.09;10284035;28;20073;-56
2022/08/20 07:41:13;;;;;;;14.25;10.30;;;;;;;26.41;48.35;97049.81;10286293;28;20534;-56
2022/08/20 07:46:17;;;;;;;18.30;9.80;;;;;;;26.71;47.95;97048.44;10287661;28;20086;-56
2022/08/20 07:51:18;;;;;;;14.85;10.32;;;;;;;27.04;47.38;97046.78;10287908;28;20548;-56
2022/08/20 07:56:21;;;;;;;15.75;10.27;;;;;;;27.32;46.70;97035.63;10286422;28;20057;-56
2022/08/20 08:01:28;;;;;;;12.93;9.95;;;;;;;27.68;46.29;97027.44;10293576;28;20072;-56
2022/08/20 08:06:27;;;;;;;13.35;10.38;;;;;;;27.98;45.80;97022.22;10292457;28;20129;-56
2022/08/20 08:11:26;;;;;;;12.38;9.75;;;;;;;28.28;43.82;97017.16;10294153;28;20077;-56
2022/08/20 08:16:27;;;;;;;11.45;9.13;;;;;;;28.58;43.31;97017.19;10296228;28;20030;-56
2022/08/20 08:21:27;;;;;;;10.85;9.02;;;;;;;28.91;41.80;97015.28;10296968;28;20796;-56
2022/08/20 08:26:27;;;;;;;10.90;8.25;;;;;;;29.24;40.65;97006.13;10297301;28;20084;-56
2022/08/20 08:31:26;;;;;;;13.15;8.77;;;;;;;29.57;40.26;97000.59;10296681;28;20646;-56
2022/08/20 08:36:26;;;;;;;11.60;8.73;;;;;;;29.98;39.77;96993.34;10295450;28;20084;-56
2022/08/20 08:41:47;;;;;;;11.48;8.30;;;;;;;30.25;38.62;96982.72;10295496;28;20137;-56
2022/08/20 08:46:50;;;;;;;11.15;7.80;;;;;;;30.45;37.43;96967.50;10293660;28;20463;-56
2022/08/20 08:52:03;;;;;;;10.55;8.00;;;;;;;30.74;36.92;96972.75;10293453;28;20061;-56
2022/08/20 08:57:06;;;;;;;12.70;7.65;;;;;;;30.96;36.03;96968.06;10292906;28;20065;-56
2022/08/20 09:02:05;;;;;;;10.40;7.90;;;;;;;31.16;35.96;96963.41;10291554;28;20073;-56
2022/08/20 09:07:10;;;;;;;11.38;7.72;;;;;;;31.37;35.18;96963.16;10287120;28;20208;-56
2022/08/20 09:12:13;;;;;;;11.13;7.50;;;;;;;31.57;34.11;96967.41;10285410;28;20069;-56
2022/08/20 09:17:13;;;;;;;10.27;8.23;;;;;;;31.91;35.04;96965.88;10289650;28;20070;-56
2022/08/20 09:22:15;;;;;;;14.68;7.88;;;;;;;32.16;33.76;96948.16;10290379;28;20057;-56
2022/08/20 09:27:14;;;;;;;12.57;7.70;;;;;;;32.32;33.65;96950.09;10290595;28;20057;-56
2022/08/20 09:32:19;;;;;;;11.95;7.28;;;;;;;32.47;33.08;96950.38;10289799;28;20026;-56
2022/08/20 09:37:18;;;;;;;9.73;7.13;;;;;;;32.57;32.37;96948.44;10290711;28;20100;-56
2022/08/20 09:42:23;;;;;;;9.68;7.20;;;;;;;32.75;31.76;96949.22;10291171;28;20369;-56
2022/08/20 09:47:23;;;;;;;11.60;7.07;;;;;;;32.78;30.13;96946.19;10290493;28;20506;-56
2022/08/20 09:52:25;;;;;;;10.18;7.22;;;;;;;32.92;29.72;96938.53;10290734;28;20062;-55
2022/08/20 09:57:26;;;;;;;7.68;6.65;;;;;;;33.10;30.00;96941.16;10290563;28;20495;-55
2022/08/20 10:02:25;;;;;;;12.48;6.93;;;;;;;33.19;30.05;96941.00;10291732;28;20074;-55
2022/08/20 10:07:24;;;;;;;7.95;6.95;;;;;;;33.29;29.61;96932.81;10289839;28;20053;-56
2022/08/20 10:12:23;;;;;;;10.38;8.43;;;;;;;33.46;29.35;96936.34;10289133;28;20072;-56
2022/08/20 10:17:22;;;;;;;10.35;6.72;;;;;;;33.62;29.93;96936.41;10290034;28;20041;-55
2022/08/20 10:22:21;;;;;;;10.77;6.43;;;;;;;33.79;29.11;96936.44;10289711;28;20026;-55
2022/08/20 10:27:20;;;;;;;8.52;6.60;;;;;;;33.99;28.52;96935.09;10289111;28;20030;-57
2022/08/20 10:32:19;;;;;;;10.77;7.03;;;;;;;34.21;27.64;96932.75;10288288;28;20109;-56
2022/08/20 10:37:21;;;;;;;9.35;6.97;;;;;;;34.29;27.44;96924.66;10287800;28;20050;-55
2022/08/20 10:42:21;;;;;;;8.48;7.38;;;;;;;34.44;28.29;96928.31;10287512;28;20220;-55
2022/08/20 10:47:19;;;;;;;8.82;7.07;;;;;;;34.67;27.78;96923.06;10288730;28;20073;-56
2022/08/20 10:52:21;;;;;;;11.32;7.82;;;;;;;34.91;27.98;96916.72;10289073;28;20042;-56
2022/08/20 10:57:23;;;;;;;10.70;7.90;;;;;;;35.08;27.28;96908.56;10288797;28;20065;-56
2022/08/20 11:02:23;;;;;;;8.63;6.90;;;;;;;35.25;27.41;96899.41;10289084;28;20065;-55
2022/08/20 11:07:38;;;;;;;9.45;6.80;;;;;;;35.34;26.23;96898.34;10288395;28;20460;-55
2022/08/20 11:12:37;;;;;;;9.00;7.32;;;;;;;35.47;26.56;96894.19;10288112;28;20072;-55
2022/08/20 11:17:40;;;;;;;8.80;7.50;;;;;;;35.55;27.27;96894.16;10288217;28;20021;-55
2022/08/20 11:22:39;;;;;;;9.90;7.22;;;;;;;35.64;26.33;96893.06;10288985;28;20514;-55
2022/08/20 11:27:41;;;;;;;10.25;7.38;;;;;;;35.40;25.93;96894.06;10288820;28;20629;-57
2022/08/20 11:32:40;;;;;;;11.25;7.18;;;;;;;35.42;25.98;96888.50;10290571;28;20069;-57
2022/08/20 11:37:39;;;;;;;8.88;7.53;;;;;;;35.52;25.99;96872.91;10266262;28;20504;-57
2022/08/20 11:42:38;;;;;;;10.43;7.03;;;;;;;35.94;26.68;96866.16;10268252;28;20415;-57
2022/08/20 11:47:37;;;;;;;11.52;7.25;;;;;;;36.27;26.05;96860.47;10260136;28;20108;-55
2022/08/20 11:52:37;;;;;;;9.25;6.88;;;;;;;36.00;25.29;96848.41;10276678;28;20073;-57
2022/08/20 11:57:40;;;;;;;9.20;6.90;;;;;;;35.66;25.08;96841.63;10295823;28;20072;-58
2022/08/20 12:02:41;;;;;;;11.52;8.52;;;;;;;35.53;25.78;96831.44;10295059;28;20077;-56
2022/08/20 12:07:40;;;;;;;11.88;8.00;;;;;;;35.31;25.60;96811.53;10295554;28;20538;-57
2022/08/20 12:12:39;;;;;;;16.27;8.25;;;;;;;35.13;26.26;96820.75;10295114;28;20551;-58
2022/08/20 12:17:38;;;;;;;12.27;8.48;;;;;;;35.24;26.73;96827.56;10295167;28;20069;-57
2022/08/20 12:22:38;;;;;;;11.40;7.70;;;;;;;35.40;26.84;96820.41;10295637;28;20073;-57
2022/08/20 12:27:38;;;;;;;9.18;8.02;;;;;;;35.64;25.50;96817.50;10293991;28;20068;-57
2022/08/20 12:32:37;;;;;;;10.43;7.47;;;;;;;35.80;25.08;96810.28;10293759;28;20065;-55
2022/08/20 12:37:37;;;;;;;9.00;8.02;;;;;;;35.81;24.27;96801.16;10294555;28;20080;-55
2022/08/20 12:42:37;;;;;;;9.82;7.88;;;;;;;35.83;25.26;96799.97;10293862;28;20073;-57
2022/08/20 12:47:39;;;;;;;9.48;7.93;;;;;;;35.54;24.74;96790.75;10293891;28;20498;-55
2022/08/20 12:52:39;;;;;;;12.48;7.97;;;;;;;35.71;24.59;96790.63;10293379;28;20491;-55
2022/08/20 12:57:46;;;;;;;12.98;8.45;;;;;;;35.52;24.90;96786.56;10292632;28;20057;-56
2022/08/20 13:02:45;;;;;;;12.02;8.07;;;;;;;35.17;25.31;96780.78;10293451;28;20073;-56
2022/08/20 13:07:45;;;;;;;14.27;9.30;;;;;;;34.97;26.46;96776.88;10292515;28;20125;-56
2022/08/20 13:12:44;;;;;;;10.90;7.57;;;;;;;34.81;27.68;96778.66;10271424;28;20077;-56
2022/08/20 13:17:43;;;;;;;13.70;7.18;;;;;;;34.46;27.59;96778.13;10261982;28;20030;-56
2022/08/20 13:22:43;;;;;;;11.82;6.97;;;;;;;34.01;28.98;96778.78;10253755;28;20089;-56
2022/08/20 13:27:43;;;;;;;12.85;6.85;;;;;;;33.75;29.50;96782.56;10251420;28;20526;-56
2022/08/20 13:32:42;;;;;;;16.00;6.65;;;;;;;33.47;29.59;96780.19;10251270;28;20070;-56
2022/08/20 13:37:41;;;;;;;12.23;7.50;;;;;;;33.19;30.50;96795.81;10280138;28;20069;-56
2022/08/20 13:42:40;;;;;;;12.10;7.35;;;;;;;32.94;31.29;96823.66;10291997;28;20073;-55
2022/08/20 13:47:41;;;;;;;9.40;7.47;;;;;;;32.68;31.52;96890.91;10290500;28;20416;-55
2022/08/20 13:52:41;;;;;;;13.77;9.57;;;;;;;31.34;35.85;96966.13;10291344;28;20071;-55
2022/08/20 13:57:41;;;;;;;16.33;9.60;;;;;;;29.31;39.92;96995.75;10289099;28;20062;-55
2022/08/20 14:02:40;;;;;;;20.17;10.05;;;;;;;27.23;45.89;97014.19;10289750;28;20509;-55
2022/08/20 14:07:41;;;;;;;14.55;8.40;;;;;;;25.81;51.28;97034.84;10288796;28;20413;-55
2022/08/20 14:12:39;;;;;;;14.57;7.80;;;;;;;24.55;56.22;97019.91;10288237;28;20062;-55
2022/08/20 14:17:41;;;;;;;14.52;9.95;;;;;;;23.66;61.96;97034.69;10288257;28;20124;-55
2022/08/20 14:22:42;;;;;;;14.50;9.52;;;;;;;23.38;65.03;97068.19;10288849;28;20073;-56
2022/08/20 14:27:41;;;;;;;13.30;10.05;;;;;;;23.51;67.31;97078.03;10289278;28;20069;-56
2022/08/20 14:32:41;;;;;;;14.15;10.25;;;;;;;23.70;66.39;97056.50;10289370;28;20084;-56
2022/08/20 14:37:42;;;;;;;15.40;10.27;;;;;;;23.98;66.42;97016.66;10288508;28;20069;-55
2022/08/20 14:42:42;;;;;;;15.30;10.57;;;;;;;24.24;66.48;97043.25;10288829;28;20069;-55
2022/08/20 14:47:51;;;;;;;15.00;10.70;;;;;;;24.41;65.58;97061.50;10288584;28;20076;-55
2022/08/20 14:52:51;;;;;;;14.63;10.75;;;;;;;24.46;63.80;97087.69;10288991;28;20069;-55
2022/08/20 14:57:51;;;;;;;16.83;11.38;;;;;;;24.53;63.33;97088.13;10288192;28;20065;-56
2022/08/20 15:02:50;;;;;;;14.43;11.55;;;;;;;24.62;61.85;97125.50;10287286;28;20073;-56
2022/08/20 15:07:49;;;;;;;18.13;13.05;;;;;;;24.53;61.22;97134.06;10286256;28;20120;-56
2022/08/20 15:12:48;;;;;;;17.75;11.55;;;;;;;24.33;63.10;97124.78;10287666;28;20104;-57
2022/08/20 15:17:50;;;;;;;28.67;14.90;;;;;;;24.15;71.57;97131.31;10288244;28;20131;-57
2022/08/20 15:22:50;;;;;;;25.70;16.13;;;;;;;23.60;75.82;97119.81;10287759;28;20073;-57
2022/08/20 15:27:49;;;;;;;25.00;16.52;;;;;;;23.15;79.16;97127.03;10288351;28;20073;-57
2022/08/20 15:32:49;;;;;;;21.80;15.38;;;;;;;22.62;82.43;97108.16;10287622;28;20065;-57
2022/08/20 15:37:49;;;;;;;24.40;16.83;;;;;;;22.30;84.38;97089.78;10288098;28;20073;-57
2022/08/20 15:42:48;;;;;;;21.17;14.63;;;;;;;22.10;84.91;97076.88;10287664;28;20071;-58
2022/08/20 15:47:52;;;;;;;24.90;15.13;;;;;;;21.99;85.44;97071.34;10287238;28;20084;-57
2022/08/20 15:52:56;;;;;;;22.67;16.27;;;;;;;21.90;86.22;97060.38;10288164;28;20074;-57
2022/08/20 15:58:04;;;;;;;23.83;15.82;;;;;;;21.89;87.52;97060.44;10285784;28;20065;-57
2022/08/20 16:03:30;;;;;;;29.02;17.63;;;;;;;21.84;88.01;97029.00;10287179;28;20076;-56
2022/08/20 16:08:46;;;;;;;25.08;17.50;;;;;;;21.68;89.28;97007.06;10286630;28;20109;-57
2022/08/20 16:13:55;;;;;;;26.20;17.10;;;;;;;21.57;88.36;96988.34;10286592;28;20065;-57
2022/08/20 16:18:54;;;;;;;;;;;;;;;21.58;88.68;96979.50;10288863;28;20055;-57
2022/08/20 16:23:54;;;;;;;23.60;15.93;;;;;;;21.55;89.64;96952.34;10294038;28;19909;-55
2022/08/20 16:29:07;;;;;;;24.08;19.13;;;;;;;21.57;89.67;96956.66;10293901;28;20068;-55
2022/08/20 16:34:27;;;;;;;23.98;17.70;;;;;;;21.43;90.13;96960.09;10293140;28;20477;-55
2022/08/20 16:39:36;;;;;;;28.67;20.05;;;;;;;21.36;90.09;96975.47;10293987;28;20085;-55
2022/08/20 16:44:37;;;;;;;31.08;19.67;;;;;;;21.26;89.08;96969.84;10293891;28;20068;-55
2022/08/20 16:49:40;;;;;;;23.50;16.00;;;;;;;21.18;88.42;96982.59;10294311;28;20069;-55
2022/08/20 16:54:43;;;;;;;28.98;13.98;;;;;;;21.02;86.73;96979.94;10292977;28;20137;-55
2022/08/20 16:59:56;;;;;;;20.65;13.32;;;;;;;20.94;87.25;96990.09;10293578;28;20077;-55
2022/08/20 17:05:00;;;;;;;20.52;12.52;;;;;;;20.83;86.63;96987.19;10292548;28;20122;-58
2022/08/20 17:10:09;;;;;;;19.75;11.13;;;;;;;20.86;86.56;97008.09;10291810;28;20591;-56
2022/08/20 17:15:19;;;;;;;22.50;11.52;;;;;;;20.66;86.63;97049.59;10263372;28;20120;-56
2022/08/20 17:20:18;;;;;;;17.95;11.75;;;;;;;20.49;86.19;97076.84;10291978;28;20069;-56
2022/08/20 17:25:30;;;;;;;17.75;12.10;;;;;;;20.60;86.92;97086.78;10292447;28;20069;-56
2022/08/20 17:30:37;;;;;;;20.17;12.45;;;;;;;20.67;86.74;97113.69;10291976;28;20096;-55
2022/08/20 17:35:36;;;;;;;19.02;13.85;;;;;;;20.71;87.20;97095.00;10290595;28;20061;-56
2022/08/20 17:40:44;;;;;;;25.38;14.45;;;;;;;20.72;87.63;97111.66;10291768;28;20028;-56
2022/08/20 17:45:44;;;;;;;22.67;14.45;;;;;;;20.83;87.47;97103.22;10290948;28;20563;-56
2022/08/20 17:50:43;;;;;;;22.58;15.73;;;;;;;20.92;87.96;97102.72;10291114;28;20065;-57
2022/08/20 17:55:43;;;;;;;23.48;14.90;;;;;;;20.95;88.15;97113.09;10290996;28;20141;-55
2022/08/20 18:00:43;;;;;;;21.20;14.43;;;;;;;20.95;87.68;97109.63;10290658;28;20478;-55
2022/08/20 18:05:46;;;;;;;20.55;14.52;;;;;;;20.84;88.39;97105.75;10291110;28;20069;-55
2022/08/20 18:10:54;;;;;;;24.52;17.25;;;;;;;20.86;89.16;97113.59;10290955;28;20419;-56
2022/08/20 18:15:56;;;;;;;25.35;16.00;;;;;;;20.87;89.53;97131.13;10289698;28;20057;-56
2022/08/20 18:21:18;;;;;;;27.50;15.57;;;;;;;20.86;89.97;97114.44;10290981;28;20080;-56
2022/08/20 18:26:23;;;;;;;21.52;15.15;;;;;;;20.84;90.03;97123.34;10289242;28;20069;-56
2022/08/20 18:31:31;;;;;;;20.42;15.35;;;;;;;20.82;90.51;97122.59;10289863;28;20088;-56
2022/08/20 18:36:29;;;;;;;23.48;16.08;;;;;;;20.82;90.97;97134.00;10289064;28;20529;-56
2022/08/20 18:42:20;;;;;;;21.17;16.27;;;;;;;20.86;91.82;97154.00;10289412;28;20480;-56
2022/08/20 18:47:28;;;;;;;26.27;17.60;;;;;;;20.85;92.57;97191.84;10271147;28;20476;-57
2022/08/20 18:52:30;;;;;;;21.17;16.15;;;;;;;20.86;92.78;97192.69;10289318;28;20069;-57
2022/08/20 18:57:35;;;;;;;21.30;15.25;;;;;;;20.75;94.36;97198.53;10289138;28;20069;-58
2022/08/20 19:02:39;;;;;;;22.17;16.80;;;;;;;20.52;95.10;97214.63;10289144;28;20068;-56
2022/08/20 19:07:42;;;;;;;24.80;18.23;;;;;;;20.49;96.57;97242.88;10287562;28;20073;-56
2022/08/20 19:13:26;;;;;;;24.60;19.33;;;;;;;20.42;97.54;97254.66;10288233;28;20065;-57
2022/08/20 19:18:33;;;;;;;24.35;18.75;;;;;;;20.22;98.59;97229.22;10281902;28;20072;-56
2022/08/20 19:23:37;;;;;;;25.10;18.63;;;;;;;20.28;99.23;97250.00;10288348;28;20068;-56
2022/08/20 19:28:43;;;;;;;30.65;20.13;;;;;;;20.35;99.71;97255.81;10287516;28;20077;-57
2022/08/20 19:33:45;;;;;;;25.05;19.42;;;;;;;20.40;100.00;97253.88;10288015;28;20065;-57
2022/08/20 19:38:47;;;;;;;24.05;19.52;;;;;;;20.43;99.96;97263.41;10287763;28;20496;-57
2022/08/20 19:43:47;;;;;;;24.65;18.77;;;;;;;20.34;100.00;97253.28;10287457;28;20065;-57
2022/08/20 19:49:06;;;;;;;25.30;17.42;;;;;;;20.36;100.00;97252.28;10288253;28;20453;-57
2022/08/20 19:54:05;;;;;;;17.10;10.90;;;;;;;20.27;95.91;97236.91;10291059;28;20077;-57
2022/08/20 19:59:08;;;;;;;16.08;11.77;;;;;;;20.39;94.20;97238.09;10295244;28;20068;-57
2022/08/20 20:04:15;;;;;;;17.08;11.88;;;;;;;20.48;94.50;97240.31;10295852;28;20080;-57
2022/08/20 20:09:25;;;;;;;17.48;10.60;;;;;;;20.41;92.58;97249.44;10295531;28;20149;-57
2022/08/20 20:14:36;;;;;;;11.80;9.10;;;;;;;20.45;90.41;97253.66;10296367;28;20486;-57
2022/08/20 20:19:52;;;;;;;9.75;5.72;;;;;;;20.46;84.79;97253.56;10295369;28;20072;-57
2022/08/20 20:24:57;;;;;;;9.95;6.03;;;;;;;20.64;85.05;97235.13;10295205;28;20080;-57
2022/08/20 20:30:11;;;;;;;8.52;5.43;;;;;;;20.71;85.50;97229.47;10295012;28;20076;-56
2022/08/20 20:35:26;;;;;;;9.55;5.03;;;;;;;20.71;85.10;97236.53;10293329;28;20077;-56
2022/08/20 20:40:29;;;;;;;8.80;5.35;;;;;;;20.69;83.77;97223.41;10294094;28;20080;-56
2022/08/20 20:45:33;;;;;;;12.35;8.13;;;;;;;20.68;84.89;97219.09;10294342;28;20072;-56
2022/08/20 20:50:34;;;;;;;12.52;7.47;;;;;;;20.64;85.96;97204.34;10293381;28;20511;-56
2022/08/20 20:55:36;;;;;;;9.23;5.55;;;;;;;20.58;84.74;97188.81;10292846;28;20061;-56
2022/08/20 21:00:35;;;;;;;8.93;5.05;;;;;;;20.55;83.94;97181.09;10293321;28;20069;-56
2022/08/20 21:05:34;;;;;;;4.65;2.67;;;;;;;20.52;82.38;97173.34;10291388;28;20518;-56
2022/08/20 21:10:36;;;;;;;4.75;2.95;;;;;;;20.51;81.38;97161.06;10292029;28;20017;-56
2022/08/20 21:15:37;;;;;;;3.28;2.10;;;;;;;20.49;81.19;97137.44;10293424;28;20072;-56
2022/08/20 21:20:36;;;;;;;5.57;2.33;;;;;;;20.48;80.49;97116.44;10292825;28;20096;-56
2022/08/20 21:25:35;;;;;;;5.05;2.50;;;;;;;20.31;78.79;97105.88;10291827;28;20098;-58
2022/08/20 21:30:34;;;;;;;9.45;2.67;;;;;;;20.29;79.95;97085.72;10292177;28;20068;-56
2022/08/20 21:35:33;;;;;;;3.65;2.10;;;;;;;20.29;80.54;97072.53;10291428;28;20034;-56
2022/08/20 21:40:32;;;;;;;6.15;2.58;;;;;;;20.31;80.65;97061.09;10291383;28;20032;-56
2022/08/20 21:45:32;;;;;;;4.93;2.67;;;;;;;20.23;79.80;97050.91;10292021;28;20026;-56
2022/08/20 21:50:31;;;;;;;5.03;3.00;;;;;;;20.16;81.05;97023.19;10291007;28;20057;-56
2022/08/20 21:55:32;;;;;;;7.47;3.13;;;;;;;20.03;83.10;97007.16;10291154;28;20037;-56
2022/08/20 22:00:50;;;;;;;8.15;3.47;;;;;;;19.77;85.00;97005.84;10291428;28;20065;-56
2022/08/20 22:05:49;;;;;;;10.70;3.25;;;;;;;19.65;85.00;97002.91;10289102;28;20070;-56
2022/08/20 22:10:52;;;;;;;7.57;3.15;;;;;;;19.68;85.29;97017.69;10289595;28;20061;-56
2022/08/20 22:15:51;;;;;;;8.75;4.10;;;;;;;19.73;85.47;97022.72;10290389;28;20479;-56
2022/08/20 22:20:50;;;;;;;8.02;4.35;;;;;;;19.74;86.49;97043.69;10286258;28;20026;-56
2022/08/20 22:25:50;;;;;;;7.03;3.72;;;;;;;19.66;86.43;97048.50;10286784;28;20068;-56
2022/08/20 22:30:49;;;;;;;8.30;3.67;;;;;;;19.62;85.64;97065.34;10287112;28;20500;-56
2022/08/20 22:35:51;;;;;;;8.13;4.10;;;;;;;19.60;86.24;97072.47;10288834;28;20514;-56
2022/08/20 22:40:52;;;;;;;5.60;3.55;;;;;;;19.63;86.04;97074.97;10289427;28;20061;-56
2022/08/20 22:45:56;;;;;;;7.85;3.22;;;;;;;19.40;85.51;97044.47;10289323;28;20080;-56
2022/08/20 22:50:56;;;;;;;5.57;3.60;;;;;;;19.61;85.63;97084.72;10289579;28;20510;-56
2022/08/20 22:55:55;;;;;;;7.18;3.53;;;;;;;19.69;85.48;97076.44;10288648;28;20491;-57
2022/08/20 23:00:55;;;;;;;7.60;3.80;;;;;;;19.69;85.77;97076.44;10288723;28;20038;-56
2022/08/20 23:05:54;;;;;;;5.20;3.67;;;;;;;19.58;85.01;97090.09;10288395;28;20168;-55
2022/08/20 23:10:53;;;;;;;9.65;3.60;;;;;;;19.54;85.19;97078.00;10288266;28;20030;-58